createdAt,value
2017-02-15T00:00:15.242Z,0
2017-02-15T00:01:24.247Z,0
2017-02-15T00:02:34.170Z,0
2017-02-15T00:03:43.165Z,0
2017-02-15T00:04:52.140Z,0
2017-02-15T00:06:01.122Z,0
2017-02-15T00:07:10.833Z,0
2017-02-15T00:08:19.826Z,0
2017-02-15T00:09:29.427Z,0
2017-02-15T00:10:38.659Z,0
2017-02-15T00:11:47.862Z,0
2017-02-15T00:12:56.852Z,0
2017-02-15T00:14:05.823Z,0
2017-02-15T00:15:15.215Z,0
2017-02-15T00:16:24.200Z,0
2017-02-15T00:17:33.838Z,0
2017-02-15T00:18:42.921Z,0
2017-02-15T00:19:52.023Z,0
2017-02-15T00:21:01.100Z,0
2017-02-15T00:22:10.080Z,0
2017-02-15T00:23:19.082Z,0
2017-02-15T00:24:28.058Z,0
2017-02-15T00:25:37.072Z,0
2017-02-15T00:26:46.641Z,0
2017-02-15T00:27:55.621Z,0
2017-02-15T00:29:05.012Z,0
2017-02-15T00:30:14.509Z,0
2017-02-15T00:31:23.506Z,0
2017-02-15T00:32:33.140Z,0
2017-02-15T00:33:42.215Z,0
2017-02-15T00:34:51.319Z,0
2017-02-15T00:36:00.315Z,0
2017-02-15T00:37:09.730Z,0
2017-02-15T00:38:19.085Z,0
2017-02-15T00:39:28.071Z,0
2017-02-15T00:40:37.900Z,0
2017-02-15T00:41:47.340Z,0
2017-02-15T00:42:56.334Z,0
2017-02-15T00:44:05.842Z,0
2017-02-15T00:45:15.464Z,0
2017-02-15T00:46:24.543Z,0
2017-02-15T00:47:33.765Z,0
2017-02-15T00:48:42.771Z,0
2017-02-15T00:49:52.013Z,0
2017-02-15T00:51:01.598Z,0
2017-02-15T00:52:10.821Z,0
2017-02-15T00:53:19.984Z,0
2017-02-15T00:54:29.174Z,0
2017-02-15T00:55:38.362Z,0
2017-02-15T00:56:47.505Z,0
2017-02-15T00:57:56.645Z,0
2017-02-15T00:59:05.633Z,0
2017-02-15T01:00:14.617Z,0
2017-02-15T01:01:24.228Z,0
2017-02-15T01:02:33.212Z,0
2017-02-15T01:03:42.762Z,0
2017-02-15T01:04:52.444Z,0
2017-02-15T01:06:02.393Z,0
2017-02-15T01:07:11.988Z,0
2017-02-15T01:08:21.178Z,0
2017-02-15T01:09:30.471Z,0
2017-02-15T01:10:39.575Z,0
2017-02-15T01:11:48.649Z,0
2017-02-15T01:12:57.730Z,0
2017-02-15T01:14:06.847Z,0
2017-02-15T01:15:15.942Z,0
2017-02-15T01:16:24.952Z,0
2017-02-15T01:17:33.928Z,0
2017-02-15T01:18:42.924Z,0
2017-02-15T01:19:52.000Z,0
2017-02-15T01:21:01.293Z,0
2017-02-15T01:22:10.454Z,0
2017-02-15T01:23:19.444Z,0
2017-02-15T01:24:28.542Z,0
2017-02-15T01:25:37.616Z,0
2017-02-15T01:26:46.603Z,0
2017-02-15T01:27:55.585Z,0
2017-02-15T01:29:04.586Z,0
2017-02-15T01:30:13.940Z,0
2017-02-15T01:31:22.984Z,0
2017-02-15T01:32:32.167Z,0
2017-02-15T01:33:41.178Z,0
2017-02-15T01:34:50.159Z,0
2017-02-15T01:35:59.164Z,0
2017-02-15T01:37:08.261Z,0
2017-02-15T01:38:17.260Z,0
2017-02-15T01:39:26.253Z,0
2017-02-15T01:40:35.253Z,0
2017-02-15T01:41:44.280Z,0
2017-02-15T01:42:53.667Z,0
2017-02-15T01:44:02.654Z,0
2017-02-15T01:45:12.046Z,0
2017-02-15T01:46:21.028Z,0
2017-02-15T01:47:30.022Z,0
2017-02-15T01:48:39.004Z,0
2017-02-15T01:49:48.001Z,0
2017-02-15T01:50:57.296Z,0
2017-02-15T01:52:06.295Z,0
2017-02-15T01:53:15.565Z,0
2017-02-15T01:54:25.334Z,0
2017-02-15T01:55:34.826Z,0
2017-02-15T01:56:44.837Z,0
2017-02-15T01:57:53.837Z,0
2017-02-15T01:59:02.834Z,0
2017-02-15T02:00:12.289Z,0
2017-02-15T02:01:22.065Z,0
2017-02-15T02:02:31.458Z,0
2017-02-15T02:03:41.739Z,0
2017-02-15T02:04:51.843Z,0
2017-02-15T02:06:01.239Z,0
2017-02-15T02:07:10.313Z,0
2017-02-15T02:08:20.049Z,0
2017-02-15T02:09:29.234Z,0
2017-02-15T02:10:38.838Z,0
2017-02-15T02:11:48.375Z,0
2017-02-15T02:12:57.962Z,0
2017-02-15T02:14:07.453Z,0
2017-02-15T02:15:16.459Z,0
2017-02-15T02:16:25.534Z,0
2017-02-15T02:17:34.522Z,0
2017-02-15T02:18:43.511Z,0
2017-02-15T02:19:52.598Z,0
2017-02-15T02:21:03.523Z,0
2017-02-15T02:22:13.663Z,0
2017-02-15T02:23:22.754Z,0
2017-02-15T02:24:32.677Z,0
2017-02-15T02:25:41.750Z,0
2017-02-15T02:26:51.037Z,0
2017-02-15T02:28:00.119Z,0
2017-02-15T02:29:09.805Z,0
2017-02-15T02:30:18.822Z,0
2017-02-15T02:31:29.063Z,0
2017-02-15T02:32:38.111Z,0
2017-02-15T02:33:47.639Z,0
2017-02-15T02:34:57.619Z,0
2017-02-15T02:36:06.967Z,0
2017-02-15T02:37:16.536Z,0
2017-02-15T02:38:25.881Z,0
2017-02-15T02:39:35.471Z,0
2017-02-15T02:40:44.717Z,0
2017-02-15T02:41:54.540Z,0
2017-02-15T02:43:04.393Z,0
2017-02-15T02:44:14.067Z,0
2017-02-15T02:45:23.802Z,0
2017-02-15T02:46:32.791Z,0
2017-02-15T02:47:42.866Z,0
2017-02-15T02:48:52.557Z,0
2017-02-15T02:50:02.103Z,0
2017-02-15T02:51:12.298Z,0
2017-02-15T02:52:21.303Z,0
2017-02-15T02:53:32.598Z,0
2017-02-15T02:54:41.583Z,0
2017-02-15T02:55:51.718Z,0
2017-02-15T02:57:00.708Z,0
2017-02-15T02:58:10.575Z,0
2017-02-15T02:59:19.703Z,0
2017-02-15T03:00:29.371Z,0
2017-02-15T03:01:38.385Z,0
2017-02-15T03:02:48.436Z,0
2017-02-15T03:03:58.355Z,0
2017-02-15T03:05:07.653Z,0
2017-02-15T03:06:17.082Z,0
2017-02-15T03:07:26.067Z,0
2017-02-15T03:08:36.040Z,0
2017-02-15T03:09:45.695Z,0
2017-02-15T03:10:55.705Z,0
2017-02-15T03:12:05.869Z,0
2017-02-15T03:13:16.848Z,0
2017-02-15T03:14:25.852Z,0
2017-02-15T03:15:35.375Z,0
2017-02-15T03:16:44.363Z,0
2017-02-15T03:17:56.189Z,0
2017-02-15T03:19:06.076Z,0
2017-02-15T03:20:16.817Z,0
2017-02-15T03:21:26.703Z,0
2017-02-15T03:22:36.678Z,0
2017-02-15T03:23:47.161Z,0
2017-02-15T03:24:57.056Z,0
2017-02-15T03:26:07.303Z,0
2017-02-15T03:27:17.040Z,0
2017-02-15T03:28:26.135Z,0
2017-02-15T03:29:36.172Z,0
2017-02-15T03:30:45.173Z,0
2017-02-15T03:31:55.279Z,0
2017-02-15T03:33:05.477Z,0
2017-02-15T03:34:15.109Z,0
2017-02-15T03:35:24.754Z,0
2017-02-15T03:36:34.799Z,0
2017-02-15T03:37:46.051Z,0
2017-02-15T03:38:58.107Z,0
2017-02-15T03:40:08.264Z,0
2017-02-15T03:41:17.252Z,0
2017-02-15T03:42:27.257Z,0
2017-02-15T03:43:36.379Z,0
2017-02-15T03:44:46.610Z,0
2017-02-15T03:45:55.589Z,0
2017-02-15T03:47:07.061Z,0
2017-02-15T03:48:17.325Z,0
2017-02-15T03:49:27.931Z,0
2017-02-15T03:50:38.730Z,0
2017-02-15T03:51:47.709Z,0
2017-02-15T03:52:59.261Z,0
2017-02-15T03:54:09.650Z,0
2017-02-15T03:55:20.046Z,0
2017-02-15T03:56:29.305Z,0
2017-02-15T03:57:39.393Z,0
2017-02-15T03:58:49.234Z,0
2017-02-15T03:59:58.644Z,0
2017-02-15T04:01:08.875Z,0
2017-02-15T04:02:18.265Z,0
2017-02-15T04:03:27.983Z,0
2017-02-15T04:04:36.979Z,0
2017-02-15T04:05:46.419Z,0
2017-02-15T04:06:55.419Z,0
2017-02-15T04:08:05.390Z,0
2017-02-15T04:09:14.378Z,0
2017-02-15T04:10:25.160Z,0
2017-02-15T04:11:34.283Z,0
2017-02-15T04:12:44.394Z,0
2017-02-15T04:13:54.691Z,0
2017-02-15T04:15:03.715Z,0
2017-02-15T04:16:13.076Z,0
2017-02-15T04:17:22.099Z,0
2017-02-15T04:18:31.398Z,0
2017-02-15T04:19:42.416Z,0
2017-02-15T04:20:51.402Z,0
2017-02-15T04:22:00.385Z,0
2017-02-15T04:23:09.723Z,0
2017-02-15T04:24:18.884Z,0
2017-02-15T04:25:29.085Z,0
2017-02-15T04:26:42.365Z,0
2017-02-15T04:27:51.600Z,0
2017-02-15T04:29:01.084Z,0
2017-02-15T04:30:10.901Z,0
2017-02-15T04:31:20.258Z,0
2017-02-15T04:32:29.592Z,0
2017-02-15T04:33:39.019Z,0
2017-02-15T04:34:49.023Z,0
2017-02-15T04:35:58.731Z,0
2017-02-15T04:37:09.640Z,0
2017-02-15T04:38:20.053Z,0
2017-02-15T04:39:29.137Z,0
2017-02-15T04:40:38.834Z,0
2017-02-15T04:41:47.824Z,0
2017-02-15T04:42:58.148Z,0
2017-02-15T04:44:07.147Z,0
2017-02-15T04:45:18.462Z,0
2017-02-15T04:46:28.714Z,0
2017-02-15T04:47:38.387Z,0
2017-02-15T04:48:47.645Z,0
2017-02-15T04:49:57.150Z,0
2017-02-15T04:51:06.368Z,0
2017-02-15T04:52:15.350Z,0
2017-02-15T04:53:24.328Z,0
2017-02-15T04:54:33.330Z,0
2017-02-15T04:55:42.317Z,0
2017-02-15T04:56:51.408Z,0
2017-02-15T04:58:00.419Z,0
2017-02-15T04:59:09.395Z,0
2017-02-15T05:00:18.470Z,0
2017-02-15T05:01:27.473Z,0
2017-02-15T05:02:36.476Z,0
2017-02-15T05:03:45.467Z,0
2017-02-15T05:04:54.451Z,0
2017-02-15T05:06:03.435Z,0
2017-02-15T05:07:12.432Z,0
2017-02-15T05:08:21.510Z,0
2017-02-15T05:09:30.506Z,0
2017-02-15T05:10:39.508Z,0
2017-02-15T05:11:48.496Z,0
2017-02-15T05:12:57.478Z,0
2017-02-15T05:14:06.467Z,0
2017-02-15T05:15:15.551Z,0
2017-02-15T05:16:24.532Z,0
2017-02-15T05:17:34.022Z,0
2017-02-15T05:18:43.114Z,0
2017-02-15T05:19:52.113Z,0
2017-02-15T05:21:01.100Z,0
2017-02-15T05:22:10.096Z,0
2017-02-15T05:23:19.077Z,0
2017-02-15T05:24:28.065Z,0
2017-02-15T05:25:37.053Z,0
2017-02-15T05:26:46.124Z,0
2017-02-15T05:27:55.103Z,0
2017-02-15T05:29:04.080Z,0
2017-02-15T05:30:13.166Z,0
2017-02-15T05:31:22.163Z,0
2017-02-15T05:32:31.149Z,0
2017-02-15T05:33:40.127Z,0
2017-02-15T05:34:49.199Z,0
2017-02-15T05:35:58.205Z,0
2017-02-15T05:37:07.186Z,0
2017-02-15T05:38:16.185Z,0
2017-02-15T05:39:25.265Z,0
2017-02-15T05:40:34.250Z,0
2017-02-15T05:41:43.232Z,0
2017-02-15T05:42:52.214Z,0
2017-02-15T05:44:01.210Z,0
2017-02-15T05:45:10.216Z,0
2017-02-15T05:46:19.207Z,0
2017-02-15T05:47:28.274Z,0
2017-02-15T05:48:37.335Z,0
2017-02-15T05:49:46.323Z,0
2017-02-15T05:50:55.312Z,0
2017-02-15T05:52:04.311Z,0
2017-02-15T05:53:13.311Z,4
2017-02-15T05:54:22.292Z,0
2017-02-15T05:55:31.785Z,0
2017-02-15T05:56:40.782Z,4
2017-02-15T05:57:49.771Z,0
2017-02-15T05:58:58.761Z,4
2017-02-15T06:00:07.750Z,4
2017-02-15T06:01:16.833Z,8
2017-02-15T06:02:25.827Z,8
2017-02-15T06:03:34.907Z,8
2017-02-15T06:04:43.979Z,8
2017-02-15T06:05:53.175Z,12
2017-02-15T06:07:02.174Z,16
2017-02-15T06:08:11.268Z,16
2017-02-15T06:09:20.260Z,20
2017-02-15T06:10:29.657Z,20
2017-02-15T06:11:38.651Z,24
2017-02-15T06:12:47.646Z,28
2017-02-15T06:13:56.640Z,32
2017-02-15T06:15:06.124Z,36
2017-02-15T06:16:15.541Z,44
2017-02-15T06:17:24.622Z,44
2017-02-15T06:18:33.706Z,52
2017-02-15T06:19:42.694Z,60
2017-02-15T06:20:51.671Z,64
2017-02-15T06:22:00.654Z,72
2017-02-15T06:23:09.662Z,76
2017-02-15T06:24:18.678Z,84
2017-02-15T06:25:27.659Z,92
2017-02-15T06:26:36.638Z,100
2017-02-15T06:27:46.063Z,108
2017-02-15T06:28:55.139Z,116
2017-02-15T06:30:04.142Z,124
2017-02-15T06:31:13.616Z,136
2017-02-15T06:32:22.705Z,144
2017-02-15T06:33:32.116Z,156
2017-02-15T06:34:41.130Z,164
2017-02-15T06:35:50.111Z,176
2017-02-15T06:36:59.200Z,184
2017-02-15T06:38:08.589Z,196
2017-02-15T06:39:17.585Z,208
2017-02-15T06:40:26.576Z,216
2017-02-15T06:41:35.993Z,228
2017-02-15T06:42:44.973Z,240
2017-02-15T06:43:53.971Z,252
2017-02-15T06:45:02.956Z,260
2017-02-15T06:46:11.956Z,272
2017-02-15T06:47:20.937Z,280
2017-02-15T06:48:29.933Z,292
2017-02-15T06:49:38.924Z,304
2017-02-15T06:50:47.930Z,312
2017-02-15T06:51:56.931Z,324
2017-02-15T06:53:05.932Z,336
2017-02-15T06:54:14.996Z,344
2017-02-15T06:55:24.172Z,356
2017-02-15T06:56:33.157Z,364
2017-02-15T06:57:42.236Z,376
2017-02-15T06:58:51.240Z,384
2017-02-15T07:00:00.251Z,396
2017-02-15T07:01:09.336Z,408
2017-02-15T07:02:18.406Z,416
2017-02-15T07:03:27.808Z,428
2017-02-15T07:04:36.813Z,436
2017-02-15T07:05:45.803Z,448
2017-02-15T07:06:55.205Z,456
2017-02-15T07:08:04.241Z,464
2017-02-15T07:09:13.411Z,472
2017-02-15T07:10:22.423Z,480
2017-02-15T07:11:32.159Z,488
2017-02-15T07:12:41.546Z,500
2017-02-15T07:13:50.793Z,508
2017-02-15T07:14:59.827Z,512
2017-02-15T07:16:08.821Z,524
2017-02-15T07:17:17.800Z,532
2017-02-15T07:18:26.778Z,544
2017-02-15T07:19:36.601Z,552
2017-02-15T07:20:46.031Z,560
2017-02-15T07:21:55.104Z,564
2017-02-15T07:23:04.507Z,576
2017-02-15T07:24:13.487Z,584
2017-02-15T07:25:22.889Z,592
2017-02-15T07:26:31.885Z,596
2017-02-15T07:27:40.889Z,604
2017-02-15T07:28:49.885Z,612
2017-02-15T07:30:08.181Z,620
2017-02-15T07:31:20.655Z,628
2017-02-15T07:32:29.636Z,636
2017-02-15T07:33:38.642Z,644
2017-02-15T07:34:47.619Z,652
2017-02-15T07:35:56.621Z,660
2017-02-15T07:37:05.618Z,676
2017-02-15T07:38:14.599Z,692
2017-02-15T07:39:23.607Z,700
2017-02-15T07:40:32.589Z,712
2017-02-15T07:41:41.606Z,720
2017-02-15T07:42:50.595Z,724
2017-02-15T07:43:59.719Z,732
2017-02-15T07:45:08.697Z,732
2017-02-15T07:46:17.772Z,728
2017-02-15T07:47:26.848Z,732
2017-02-15T07:48:35.855Z,744
2017-02-15T07:49:44.856Z,752
2017-02-15T07:50:53.929Z,748
2017-02-15T07:52:03.379Z,748
2017-02-15T07:53:12.400Z,748
2017-02-15T07:54:21.389Z,748
2017-02-15T07:55:30.374Z,752
2017-02-15T07:56:39.381Z,764
2017-02-15T07:57:48.463Z,768
2017-02-15T07:58:57.530Z,780
2017-02-15T08:00:06.625Z,796
2017-02-15T08:01:15.624Z,800
2017-02-15T08:02:24.610Z,808
2017-02-15T08:03:33.599Z,812
2017-02-15T08:04:42.999Z,820
2017-02-15T08:05:52.021Z,828
2017-02-15T08:07:00.997Z,844
2017-02-15T08:08:09.978Z,852
2017-02-15T08:09:18.957Z,860
2017-02-15T08:10:27.965Z,868
2017-02-15T08:11:36.956Z,880
2017-02-15T08:12:45.971Z,880
2017-02-15T08:13:54.960Z,880
2017-02-15T08:15:03.958Z,872
2017-02-15T08:16:13.403Z,884
2017-02-15T08:17:22.410Z,892
2017-02-15T08:18:31.520Z,916
2017-02-15T08:19:40.511Z,920
2017-02-15T08:20:49.503Z,932
2017-02-15T08:21:58.994Z,932
2017-02-15T08:23:07.989Z,944
2017-02-15T08:24:17.059Z,956
2017-02-15T08:25:26.054Z,960
2017-02-15T08:26:35.052Z,960
2017-02-15T08:27:44.029Z,964
2017-02-15T08:28:53.015Z,964
2017-02-15T08:30:01.998Z,964
2017-02-15T08:31:11.015Z,980
2017-02-15T08:32:20.089Z,992
2017-02-15T08:33:29.076Z,992
2017-02-15T08:34:38.467Z,996
2017-02-15T08:35:47.463Z,1000
2017-02-15T08:36:56.470Z,1008
2017-02-15T08:38:05.564Z,1008
2017-02-15T08:39:14.640Z,1020
2017-02-15T08:40:23.658Z,1016
2017-02-15T08:41:32.650Z,1012
2017-02-15T08:42:41.652Z,1012
2017-02-15T08:43:50.653Z,1024
2017-02-15T08:44:59.653Z,1032
2017-02-15T08:46:08.648Z,1028
2017-02-15T08:47:17.721Z,1032
2017-02-15T08:48:26.716Z,1044
2017-02-15T08:49:36.201Z,1040
2017-02-15T08:50:45.282Z,1036
2017-02-15T08:51:54.266Z,1048
2017-02-15T08:53:03.356Z,1052
2017-02-15T08:54:12.351Z,1044
2017-02-15T08:55:21.370Z,1060
2017-02-15T08:56:30.779Z,1060
2017-02-15T08:57:39.858Z,1068
2017-02-15T08:58:48.846Z,1060
2017-02-15T08:59:57.834Z,1076
2017-02-15T09:01:07.223Z,1076
2017-02-15T09:02:16.213Z,1064
2017-02-15T09:03:25.298Z,1068
2017-02-15T09:04:34.398Z,1080
2017-02-15T09:05:43.510Z,1084
2017-02-15T09:06:52.904Z,1088
2017-02-15T09:08:01.891Z,1088
2017-02-15T09:09:10.889Z,1096
2017-02-15T09:10:19.976Z,1108
2017-02-15T09:11:29.477Z,1112
2017-02-15T09:12:38.477Z,1104
2017-02-15T09:13:47.471Z,1112
2017-02-15T09:14:56.867Z,1116
2017-02-15T09:16:05.874Z,1120
2017-02-15T09:17:14.878Z,1128
2017-02-15T09:18:23.977Z,1124
2017-02-15T09:19:33.043Z,1120
2017-02-15T09:20:42.056Z,1128
2017-02-15T09:21:51.055Z,1144
2017-02-15T09:23:00.040Z,1144
2017-02-15T09:24:09.039Z,1140
2017-02-15T09:25:18.083Z,1136
2017-02-15T09:26:27.077Z,1152
2017-02-15T09:27:36.067Z,1140
2017-02-15T09:28:45.049Z,1148
2017-02-15T09:29:54.029Z,1164
2017-02-15T09:31:03.034Z,1152
2017-02-15T09:32:12.127Z,1164
2017-02-15T09:33:22.346Z,1168
2017-02-15T09:34:31.909Z,1172
2017-02-15T09:35:41.541Z,1168
2017-02-15T09:36:50.824Z,1184
2017-02-15T09:37:59.904Z,1172
2017-02-15T09:39:09.299Z,1184
2017-02-15T09:40:18.375Z,1180
2017-02-15T09:41:28.191Z,1204
2017-02-15T09:42:37.387Z,1192
2017-02-15T09:43:47.016Z,1200
2017-02-15T09:44:56.011Z,1192
2017-02-15T09:46:05.008Z,1208
2017-02-15T09:47:17.404Z,1216
2017-02-15T09:48:27.390Z,1224
2017-02-15T09:49:36.832Z,1212
2017-02-15T09:50:45.822Z,1204
2017-02-15T09:51:54.822Z,1224
2017-02-15T09:53:03.815Z,1232
2017-02-15T09:54:12.809Z,1216
2017-02-15T09:55:22.194Z,1228
2017-02-15T09:56:31.357Z,1232
2017-02-15T09:57:40.369Z,1220
2017-02-15T09:58:49.833Z,1228
2017-02-15T09:59:59.078Z,1232
2017-02-15T10:01:08.072Z,1240
2017-02-15T10:02:17.799Z,1236
2017-02-15T10:03:27.868Z,1244
2017-02-15T10:04:37.521Z,1244
2017-02-15T10:05:46.732Z,1252
2017-02-15T10:06:55.760Z,1252
2017-02-15T10:08:05.464Z,1260
2017-02-15T10:09:15.993Z,1248
2017-02-15T10:10:26.079Z,1268
2017-02-15T10:11:36.683Z,1260
2017-02-15T10:12:48.530Z,1268
2017-02-15T10:13:58.669Z,1272
2017-02-15T10:15:08.885Z,1272
2017-02-15T10:16:18.862Z,1260
2017-02-15T10:17:29.014Z,1252
2017-02-15T10:18:38.320Z,1260
2017-02-15T10:19:48.185Z,1264
2017-02-15T10:20:58.210Z,1268
2017-02-15T10:22:07.734Z,1268
2017-02-15T10:23:19.162Z,1284
2017-02-15T10:24:28.237Z,1280
2017-02-15T10:25:37.612Z,1276
2017-02-15T10:26:46.617Z,1280
2017-02-15T10:27:56.121Z,1268
2017-02-15T10:29:05.142Z,1272
2017-02-15T10:30:14.160Z,1264
2017-02-15T10:31:23.171Z,1260
2017-02-15T10:32:32.157Z,1276
2017-02-15T10:33:41.170Z,1264
2017-02-15T10:34:50.251Z,1284
2017-02-15T10:35:59.353Z,1268
2017-02-15T10:37:08.369Z,1264
2017-02-15T10:38:17.389Z,1284
2017-02-15T10:39:26.399Z,1288
2017-02-15T10:40:35.886Z,1272
2017-02-15T10:41:44.971Z,1272
2017-02-15T10:42:53.957Z,1300
2017-02-15T10:44:02.952Z,1292
2017-02-15T10:45:11.968Z,1284
2017-02-15T10:46:21.039Z,1304
2017-02-15T10:47:30.026Z,1300
2017-02-15T10:48:39.036Z,1288
2017-02-15T10:49:48.030Z,1304
2017-02-15T10:50:57.021Z,1300
2017-02-15T10:52:06.015Z,1300
2017-02-15T10:53:14.999Z,1300
2017-02-15T10:54:24.006Z,1316
2017-02-15T10:55:33.010Z,1308
2017-02-15T10:56:42.588Z,1304
2017-02-15T10:57:52.670Z,1308
2017-02-15T10:59:01.674Z,1292
2017-02-15T11:00:10.677Z,1288
2017-02-15T11:01:19.690Z,1300
2017-02-15T11:02:28.812Z,1312
2017-02-15T11:03:37.803Z,1296
2017-02-15T11:04:46.801Z,1292
2017-02-15T11:05:55.787Z,1312
2017-02-15T11:07:05.224Z,1316
2017-02-15T11:08:14.223Z,1300
2017-02-15T11:09:23.236Z,1296
2017-02-15T11:10:32.324Z,1296
2017-02-15T11:11:41.316Z,1300
2017-02-15T11:12:50.326Z,1312
2017-02-15T11:13:59.406Z,1320
2017-02-15T11:15:08.390Z,1320
2017-02-15T11:16:17.394Z,1316
2017-02-15T11:17:26.427Z,1316
2017-02-15T11:18:35.443Z,1316
2017-02-15T11:19:44.536Z,1312
2017-02-15T11:20:53.548Z,1312
2017-02-15T11:22:02.553Z,1312
2017-02-15T11:23:11.552Z,1312
2017-02-15T11:24:20.654Z,1316
2017-02-15T11:25:29.643Z,1316
2017-02-15T11:26:38.665Z,1320
2017-02-15T11:27:47.758Z,1312
2017-02-15T11:28:57.170Z,1308
2017-02-15T11:30:06.199Z,1312
2017-02-15T11:31:15.197Z,1304
2017-02-15T11:32:24.225Z,1316
2017-02-15T11:33:33.222Z,1320
2017-02-15T11:34:42.235Z,1316
2017-02-15T11:35:51.247Z,1300
2017-02-15T11:37:00.249Z,1312
2017-02-15T11:38:09.249Z,1308
2017-02-15T11:39:18.268Z,1304
2017-02-15T11:40:27.264Z,1296
2017-02-15T11:41:36.272Z,1284
2017-02-15T11:42:45.268Z,1296
2017-02-15T11:43:54.256Z,1288
2017-02-15T11:45:03.248Z,1288
2017-02-15T11:46:12.335Z,1288
2017-02-15T11:47:21.358Z,1300
2017-02-15T11:48:30.351Z,1300
2017-02-15T11:49:39.338Z,1296
2017-02-15T11:50:48.660Z,1304
2017-02-15T11:51:58.340Z,1300
2017-02-15T11:53:08.704Z,1304
2017-02-15T11:54:18.104Z,1296
2017-02-15T11:55:27.382Z,1300
2017-02-15T11:56:37.933Z,1296
2017-02-15T11:57:47.664Z,1296
2017-02-15T11:58:57.115Z,1276
2017-02-15T12:00:06.232Z,1268
2017-02-15T12:01:15.768Z,1264
2017-02-15T12:02:25.056Z,1268
2017-02-15T12:03:34.913Z,1264
2017-02-15T12:04:44.349Z,1260
2017-02-15T12:05:53.617Z,1256
2017-02-15T12:07:02.948Z,1256
2017-02-15T12:08:12.744Z,1264
2017-02-15T12:09:22.512Z,1256
2017-02-15T12:10:32.724Z,1248
2017-02-15T12:11:42.479Z,1252
2017-02-15T12:12:52.550Z,1240
2017-02-15T12:14:02.926Z,1236
2017-02-15T12:15:12.451Z,1232
2017-02-15T12:16:23.153Z,1232
2017-02-15T12:17:32.566Z,1232
2017-02-15T12:18:41.739Z,1228
2017-02-15T12:19:51.170Z,1224
2017-02-15T12:21:00.702Z,1224
2017-02-15T12:22:10.501Z,1220
2017-02-15T12:23:20.708Z,1212
2017-02-15T12:24:29.712Z,1208
2017-02-15T12:25:38.706Z,1208
2017-02-15T12:26:48.412Z,1208
2017-02-15T12:27:57.864Z,1204
2017-02-15T12:29:07.800Z,1196
2017-02-15T12:30:16.831Z,1196
2017-02-15T12:31:27.667Z,1204
2017-02-15T12:32:36.834Z,1200
2017-02-15T12:33:46.567Z,1200
2017-02-15T12:34:55.579Z,1196
2017-02-15T12:36:04.567Z,1192
2017-02-15T12:37:13.567Z,1196
2017-02-15T12:38:22.561Z,1196
2017-02-15T12:39:31.569Z,1188
2017-02-15T12:40:41.281Z,1188
2017-02-15T12:41:50.559Z,1188
2017-02-15T12:43:01.108Z,1188
2017-02-15T12:44:10.451Z,1184
2017-02-15T12:45:20.725Z,1184
2017-02-15T12:46:30.901Z,1180
2017-02-15T12:47:39.979Z,1172
2017-02-15T12:48:50.233Z,1172
2017-02-15T12:50:00.270Z,1164
2017-02-15T12:51:09.294Z,1160
2017-02-15T12:52:19.785Z,1156
2017-02-15T12:53:30.225Z,1148
2017-02-15T12:54:42.749Z,1156
2017-02-15T12:55:53.873Z,1164
2017-02-15T12:57:04.165Z,1168
2017-02-15T12:58:13.600Z,1164
2017-02-15T12:59:24.023Z,1164
2017-02-15T13:00:33.402Z,1168
2017-02-15T13:01:43.344Z,1160
2017-02-15T13:02:56.369Z,1160
2017-02-15T13:04:09.154Z,1160
2017-02-15T13:05:18.149Z,1156
2017-02-15T13:06:27.164Z,1148
2017-02-15T13:07:36.155Z,1144
2017-02-15T13:08:45.201Z,1132
2017-02-15T13:09:54.377Z,1132
2017-02-15T13:11:03.397Z,1132
2017-02-15T13:12:12.406Z,1136
2017-02-15T13:13:21.416Z,1128
2017-02-15T13:14:30.449Z,1128
2017-02-15T13:15:39.440Z,1128
2017-02-15T13:16:48.449Z,1120
2017-02-15T13:17:57.464Z,1120
2017-02-15T13:19:06.469Z,1116
2017-02-15T13:20:15.585Z,1112
2017-02-15T13:21:25.875Z,1108
2017-02-15T13:22:34.876Z,1112
2017-02-15T13:23:44.528Z,1108
2017-02-15T13:24:53.521Z,1108
2017-02-15T13:26:02.518Z,1168
2017-02-15T13:27:11.936Z,1612
2017-02-15T13:28:21.869Z,1888
2017-02-15T13:29:30.964Z,1416
2017-02-15T13:30:39.963Z,1112
2017-02-15T13:31:50.399Z,1100
2017-02-15T13:32:59.405Z,1012
2017-02-15T13:34:08.502Z,1008
2017-02-15T13:35:17.555Z,1004
2017-02-15T13:36:26.563Z,992
2017-02-15T13:37:35.553Z,996
2017-02-15T13:38:44.544Z,988
2017-02-15T13:39:53.538Z,992
2017-02-15T13:41:02.541Z,1000
2017-02-15T13:42:11.545Z,1004
2017-02-15T13:43:20.662Z,1028
2017-02-15T13:44:29.665Z,1052
2017-02-15T13:45:38.760Z,1088
2017-02-15T13:46:47.762Z,1160
2017-02-15T13:47:56.764Z,1168
2017-02-15T13:49:05.762Z,1120
2017-02-15T13:50:15.177Z,1052
2017-02-15T13:51:24.176Z,1004
2017-02-15T13:52:33.175Z,976
2017-02-15T13:53:42.264Z,956
2017-02-15T13:54:51.266Z,1020
2017-02-15T13:56:00.253Z,1008
2017-02-15T13:57:09.236Z,1000
2017-02-15T13:58:18.330Z,992
2017-02-15T13:59:27.333Z,984
2017-02-15T14:00:36.767Z,984
2017-02-15T14:01:45.855Z,976
2017-02-15T14:02:54.852Z,976
2017-02-15T14:04:04.045Z,980
2017-02-15T14:05:13.133Z,976
2017-02-15T14:06:22.128Z,968
2017-02-15T14:07:31.127Z,968
2017-02-15T14:08:40.237Z,960
2017-02-15T14:09:49.240Z,948
2017-02-15T14:10:58.250Z,936
2017-02-15T14:12:07.281Z,924
2017-02-15T14:13:16.269Z,920
2017-02-15T14:14:25.274Z,912
2017-02-15T14:15:34.286Z,908
2017-02-15T14:16:43.292Z,900
2017-02-15T14:17:52.290Z,892
2017-02-15T14:19:01.293Z,888
2017-02-15T14:20:10.288Z,880
2017-02-15T14:21:19.282Z,868
2017-02-15T14:22:28.279Z,860
2017-02-15T14:23:37.281Z,856
2017-02-15T14:24:46.361Z,852
2017-02-15T14:25:55.843Z,840
2017-02-15T14:27:04.842Z,836
2017-02-15T14:28:13.833Z,828
2017-02-15T14:29:23.002Z,824
2017-02-15T14:30:32.176Z,816
2017-02-15T14:31:41.274Z,812
2017-02-15T14:32:50.270Z,808
2017-02-15T14:33:59.506Z,800
2017-02-15T14:35:09.233Z,792
2017-02-15T14:36:19.788Z,784
2017-02-15T14:37:29.703Z,780
2017-02-15T14:38:38.796Z,772
2017-02-15T14:39:47.792Z,760
2017-02-15T14:40:58.629Z,756
2017-02-15T14:42:08.152Z,748
2017-02-15T14:43:17.439Z,744
2017-02-15T14:44:27.177Z,736
2017-02-15T14:45:37.754Z,728
2017-02-15T14:46:48.778Z,724
2017-02-15T14:47:57.786Z,716
2017-02-15T14:49:07.992Z,712
2017-02-15T14:50:17.229Z,704
2017-02-15T14:51:26.688Z,700
2017-02-15T14:52:35.802Z,688
2017-02-15T14:53:45.738Z,680
2017-02-15T14:54:55.081Z,672
2017-02-15T14:56:04.673Z,668
2017-02-15T14:57:13.902Z,660
2017-02-15T14:58:23.160Z,656
2017-02-15T14:59:32.179Z,648
2017-02-15T15:00:41.617Z,640
2017-02-15T15:01:50.638Z,632
2017-02-15T15:02:59.865Z,624
2017-02-15T15:04:09.267Z,620
2017-02-15T15:05:18.655Z,616
2017-02-15T15:06:27.865Z,608
2017-02-15T15:07:37.024Z,600
2017-02-15T15:08:46.539Z,592
2017-02-15T15:09:56.558Z,584
2017-02-15T15:11:06.440Z,576
2017-02-15T15:12:15.670Z,568
2017-02-15T15:13:25.127Z,560
2017-02-15T15:14:34.609Z,552
2017-02-15T15:15:44.263Z,544
2017-02-15T15:16:54.216Z,536
2017-02-15T15:18:03.636Z,528
2017-02-15T15:19:13.059Z,520
2017-02-15T15:20:22.417Z,516
2017-02-15T15:21:31.678Z,504
2017-02-15T15:22:41.201Z,496
2017-02-15T15:23:50.360Z,492
2017-02-15T15:24:59.849Z,484
2017-02-15T15:26:09.653Z,476
2017-02-15T15:27:19.432Z,468
2017-02-15T15:28:28.651Z,460
2017-02-15T15:29:39.623Z,452
2017-02-15T15:30:49.064Z,444
2017-02-15T15:31:58.586Z,432
2017-02-15T15:33:07.905Z,424
2017-02-15T15:34:17.761Z,420
2017-02-15T15:35:28.363Z,408
2017-02-15T15:36:38.239Z,400
2017-02-15T15:37:47.709Z,392
2017-02-15T15:38:57.235Z,380
2017-02-15T15:40:06.697Z,372
2017-02-15T15:41:15.842Z,364
2017-02-15T15:42:25.340Z,356
2017-02-15T15:43:34.785Z,344
2017-02-15T15:44:44.629Z,336
2017-02-15T15:45:54.999Z,328
2017-02-15T15:47:04.608Z,320
2017-02-15T15:48:14.254Z,308
2017-02-15T15:49:24.282Z,300
2017-02-15T15:50:34.229Z,292
2017-02-15T15:51:44.775Z,280
2017-02-15T15:52:54.736Z,268
2017-02-15T15:54:05.529Z,260
2017-02-15T15:55:14.833Z,248
2017-02-15T15:56:24.172Z,240
2017-02-15T15:57:33.782Z,228
2017-02-15T15:58:44.163Z,220
2017-02-15T15:59:54.191Z,212
2017-02-15T16:01:05.321Z,196
2017-02-15T16:02:15.180Z,188
2017-02-15T16:03:24.449Z,180
2017-02-15T16:04:33.821Z,168
2017-02-15T16:05:43.498Z,160
2017-02-15T16:06:53.215Z,148
2017-02-15T16:08:02.766Z,140
2017-02-15T16:09:12.173Z,132
2017-02-15T16:10:21.497Z,124